sensor_id;sensor_type;location;lat;lon;timestamp;pressure;altitude;pressure_sealevel;temperature;humidity
5138;BME280;53959;53.626;11.410;2023-02-19T00:02:22;100889.91;;;2.96;83.79
5138;BME280;53959;53.626;11.410;2023-02-19T00:04:47;100889.91;;;2.94;83.61
5138;BME280;53959;53.626;11.410;2023-02-19T00:07:12;100888.19;;;2.99;83.42
5138;BME280;53959;53.626;11.410;2023-02-19T00:09:38;100882.94;;;2.99;83.39
5138;BME280;53959;53.626;11.410;2023-02-19T00:12:03;100880.38;;;3.07;83.02
5138;BME280;53959;53.626;11.410;2023-02-19T00:14:29;100888.19;;;2.99;83.79
5138;BME280;53959;53.626;11.410;2023-02-19T00:16:54;100878.56;;;2.98;83.86
5138;BME280;53959;53.626;11.410;2023-02-19T00:19:20;100878.53;;;2.94;84.04
5138;BME280;53959;53.626;11.410;2023-02-19T00:21:46;100881.22;;;3.04;84.06
5138;BME280;53959;53.626;11.410;2023-02-19T00:24:12;100879.44;;;3.00;84.21
5138;BME280;53959;53.626;11.410;2023-02-19T00:26:38;100881.16;;;2.95;83.73
5138;BME280;53959;53.626;11.410;2023-02-19T00:29:05;100871.47;;;2.89;83.75
5138;BME280;53959;53.626;11.410;2023-02-19T00:31:32;100872.44;;;2.98;84.40
5138;BME280;53959;53.626;11.410;2023-02-19T00:34:00;100869.81;;;2.98;84.14
5138;BME280;53959;53.626;11.410;2023-02-19T00:36:27;100880.28;;;2.96;83.94
5138;BME280;53959;53.626;11.410;2023-02-19T00:38:53;100873.31;;;2.98;83.71
5138;BME280;53959;53.626;11.410;2023-02-19T00:41:20;100868.94;;;2.97;83.77
5138;BME280;53959;53.626;11.410;2023-02-19T00:43:59;100865.41;;;2.97;83.38
5138;BME280;53959;53.626;11.410;2023-02-19T00:46:30;100875.00;;;2.91;83.97
5138;BME280;53959;53.626;11.410;2023-02-19T00:48:56;100871.50;;;2.92;83.94
5138;BME280;53959;53.626;11.410;2023-02-19T00:51:24;100875.88;;;2.92;84.07
5138;BME280;53959;53.626;11.410;2023-02-19T00:53:50;100886.47;;;3.01;84.38
5138;BME280;53959;53.626;11.410;2023-02-19T00:56:16;100880.28;;;2.96;84.23
5138;BME280;53959;53.626;11.410;2023-02-19T00:58:41;100871.47;;;2.89;83.86
5138;BME280;53959;53.626;11.410;2023-02-19T01:01:07;100879.34;;;2.86;84.77
5138;BME280;53959;53.626;11.410;2023-02-19T01:03:33;100877.59;;;2.88;84.59
5138;BME280;53959;53.626;11.410;2023-02-19T01:05:59;100875.91;;;2.97;84.22
5138;BME280;53959;53.626;11.410;2023-02-19T01:08:25;100874.19;;;3.00;84.46
5138;BME280;53959;53.626;11.410;2023-02-19T01:10:51;100877.63;;;2.91;84.57
5138;BME280;53959;53.626;11.410;2023-02-19T01:13:18;100868.06;;;3.00;84.30
5138;BME280;53959;53.626;11.410;2023-02-19T01:15:44;100874.19;;;3.00;84.27
5138;BME280;53959;53.626;11.410;2023-02-19T01:18:09;100883.91;;;3.12;84.27
5138;BME280;53959;53.626;11.410;2023-02-19T01:20:40;100881.38;;;3.23;84.23
5138;BME280;53959;53.626;11.410;2023-02-19T01:23:06;100881.31;;;3.13;83.94
5138;BME280;53959;53.626;11.410;2023-02-19T01:25:32;100887.50;;;3.22;83.95
5138;BME280;53959;53.626;11.410;2023-02-19T01:27:57;100886.63;;;3.23;83.83
5138;BME280;53959;53.626;11.410;2023-02-19T01:30:23;100897.09;;;3.16;83.63
5138;BME280;53959;53.626;11.410;2023-02-19T01:32:48;100904.16;;;3.27;83.61
5138;BME280;53959;53.626;11.410;2023-02-19T01:35:13;100894.47;;;3.20;83.77
5138;BME280;53959;53.626;11.410;2023-02-19T01:37:39;100889.19;;;3.15;84.01
5138;BME280;53959;53.626;11.410;2023-02-19T01:40:05;100890.13;;;3.22;83.46
5138;BME280;53959;53.626;11.410;2023-02-19T01:42:30;100889.22;;;3.18;82.48
5138;BME280;53959;53.626;11.410;2023-02-19T01:45:18;100890.97;;;3.19;82.19
5138;BME280;53959;53.626;11.410;2023-02-19T01:47:46;100892.69;;;3.15;82.42
5138;BME280;53959;53.626;11.410;2023-02-19T01:50:15;100901.53;;;3.25;81.38
5138;BME280;53959;53.626;11.410;2023-02-19T01:52:40;100898.03;;;3.26;82.10
5138;BME280;53959;53.626;11.410;2023-02-19T01:55:07;100890.13;;;3.20;82.23
5138;BME280;53959;53.626;11.410;2023-02-19T01:57:37;100899.75;;;3.23;82.69
5138;BME280;53959;53.626;11.410;2023-02-19T02:00:08;100898.84;;;3.17;83.48
5138;BME280;53959;53.626;11.410;2023-02-19T02:02:42;100893.66;;;3.24;82.42
5138;BME280;53959;53.626;11.410;2023-02-19T02:05:14;100895.38;;;3.20;81.76
5138;BME280;53959;53.626;11.410;2023-02-19T02:07:43;100892.72;;;3.17;81.65
5138;BME280;53959;53.626;11.410;2023-02-19T02:10:27;100889.19;;;3.15;81.08
5138;BME280;53959;53.626;11.410;2023-02-19T02:12:56;100894.47;;;3.18;81.30
5138;BME280;53959;53.626;11.410;2023-02-19T02:15:23;100887.47;;;3.19;81.04
5138;BME280;53959;53.626;11.410;2023-02-19T02:18:10;100897.16;;;3.26;80.99
5138;BME280;53959;53.626;11.410;2023-02-19T02:21:01;100890.09;;;3.19;80.49
5138;BME280;53959;53.626;11.410;2023-02-19T02:29:30;100883.88;;;3.06;79.82
5138;BME280;53959;53.626;11.410;2023-02-19T02:32:13;100892.47;;;2.89;79.46
5138;BME280;53959;53.626;11.410;2023-02-19T02:34:50;100888.97;;;2.89;78.70
5138;BME280;53959;53.626;11.410;2023-02-19T02:37:17;100885.53;;;2.96;79.28
5138;BME280;53959;53.626;11.410;2023-02-19T02:39:44;100880.31;;;2.98;79.47
5138;BME280;53959;53.626;11.410;2023-02-19T02:42:11;100874.19;;;2.97;79.25
5138;BME280;53959;53.626;11.410;2023-02-19T02:48:01;100865.41;;;2.94;80.02
5138;BME280;53959;53.626;11.410;2023-02-19T02:50:35;100862.75;;;2.90;79.47
5138;BME280;53959;53.626;11.410;2023-02-19T02:53:07;100870.66;;;2.94;79.53
5138;BME280;53959;53.626;11.410;2023-02-19T02:55:54;100864.44;;;2.84;78.56
5138;BME280;53959;53.626;11.410;2023-02-19T02:58:21;100861.75;;;2.78;78.86
5138;BME280;53959;53.626;11.410;2023-02-19T03:00:54;100866.09;;;2.73;79.58
5138;BME280;53959;53.626;11.410;2023-02-19T03:03:42;100851.25;;;2.75;79.67
5138;BME280;53959;53.626;11.410;2023-02-19T03:06:11;100856.47;;;2.72;79.15
5138;BME280;53959;53.626;11.410;2023-02-19T03:08:43;100851.25;;;2.78;79.36
5138;BME280;53959;53.626;11.410;2023-02-19T03:11:12;100849.50;;;2.78;79.44
5138;BME280;53959;53.626;11.410;2023-02-19T03:14:17;100852.91;;;2.66;80.19
5138;BME280;53959;53.626;11.410;2023-02-19T03:17:16;100855.44;;;2.57;79.67
5138;BME280;53959;53.626;11.410;2023-02-19T03:20:05;100858.16;;;2.63;80.13
5138;BME280;53959;53.626;11.410;2023-02-19T03:22:35;100855.44;;;2.59;80.17
5138;BME280;53959;53.626;11.410;2023-02-19T03:25:08;100851.97;;;2.57;79.94
5138;BME280;53959;53.626;11.410;2023-02-19T03:27:53;100859.91;;;2.64;80.07
5138;BME280;53959;53.626;11.410;2023-02-19T03:30:23;100858.84;;;2.47;80.14
5138;BME280;53959;53.626;11.410;2023-02-19T03:32:57;100859.03;;;2.64;80.14
5138;BME280;53959;53.626;11.410;2023-02-19T03:35:29;100854.56;;;2.58;80.12
5138;BME280;53959;53.626;11.410;2023-02-19T03:38:15;100864.13;;;2.50;80.24
5138;BME280;53959;53.626;11.410;2023-02-19T03:41:03;100859.75;;;2.51;80.53
5138;BME280;53959;53.626;11.410;2023-02-19T03:43:38;100864.03;;;2.41;80.39
5138;BME280;53959;53.626;11.410;2023-02-19T03:46:10;100864.06;;;2.46;80.61
5138;BME280;53959;53.626;11.410;2023-02-19T03:48:47;100868.28;;;2.30;80.37
5138;BME280;53959;53.626;11.410;2023-02-19T03:51:31;100877.06;;;2.36;80.56
5138;BME280;53959;53.626;11.410;2023-02-19T03:56:48;100875.22;;;2.28;80.82
5138;BME280;53959;53.626;11.410;2023-02-19T03:59:23;100879.56;;;2.23;80.95
5138;BME280;53959;53.626;11.410;2023-02-19T04:01:57;100882.31;;;2.33;80.94
5138;BME280;53959;53.626;11.410;2023-02-19T04:04:28;100875.28;;;2.31;80.64
5138;BME280;53959;53.626;11.410;2023-02-19T04:06:56;100883.84;;;2.16;80.98
5138;BME280;53959;53.626;11.410;2023-02-19T04:09:26;100887.34;;;2.16;80.99
5138;BME280;53959;53.626;11.410;2023-02-19T04:12:01;100891.66;;;2.11;81.58
5138;BME280;53959;53.626;11.410;2023-02-19T04:14:32;100892.56;;;2.16;81.33
5138;BME280;53959;53.626;11.410;2023-02-19T04:17:05;100894.31;;;2.16;81.07
5138;BME280;53959;53.626;11.410;2023-02-19T04:19:33;100897.72;;;2.09;81.36
5138;BME280;53959;53.626;11.410;2023-02-19T04:22:01;100895.97;;;2.09;81.38
5138;BME280;53959;53.626;11.410;2023-02-19T04:24:33;100903.06;;;2.16;81.34
5138;BME280;53959;53.626;11.410;2023-02-19T04:27:01;100897.81;;;2.18;81.38
5138;BME280;53959;53.626;11.410;2023-02-19T04:29:27;100904.66;;;2.05;80.81
5138;BME280;53959;53.626;11.410;2023-02-19T04:31:52;100910.72;;;2.03;81.17
5138;BME280;53959;53.626;11.410;2023-02-19T04:34:18;100908.34;;;2.19;81.21
5138;BME280;53959;53.626;11.410;2023-02-19T04:36:43;100913.44;;;2.09;81.28
5138;BME280;53959;53.626;11.410;2023-02-19T04:39:09;100914.34;;;2.11;81.58
5138;BME280;53959;53.626;11.410;2023-02-19T04:41:34;100928.34;;;2.13;81.31
5138;BME280;53959;53.626;11.410;2023-02-19T04:43:59;100927.31;;;2.00;81.11
5138;BME280;53959;53.626;11.410;2023-02-19T04:46:25;100928.25;;;2.07;81.16
5138;BME280;53959;53.626;11.410;2023-02-19T04:48:50;100924.75;;;2.06;81.50
5138;BME280;53959;53.626;11.410;2023-02-19T04:51:15;100932.56;;;2.00;81.24
5138;BME280;53959;53.626;11.410;2023-02-19T04:53:41;100924.66;;;1.97;81.44
5138;BME280;53959;53.626;11.410;2023-02-19T04:56:11;100916.84;;;2.00;81.14
5138;BME280;53959;53.626;11.410;2023-02-19T04:58:36;100929.06;;;2.00;81.26
5138;BME280;53959;53.626;11.410;2023-02-19T05:01:02;100930.75;;;1.98;81.83
5138;BME280;53959;53.626;11.410;2023-02-19T05:03:28;100934.25;;;1.98;81.66
5138;BME280;53959;53.626;11.410;2023-02-19T05:05:53;100938.63;;;1.96;81.34
5138;BME280;53959;53.626;11.410;2023-02-19T05:08:19;100954.22;;;1.90;81.31
5138;BME280;53959;53.626;11.410;2023-02-19T05:10:44;100949.97;;;1.97;81.35
5138;BME280;53959;53.626;11.410;2023-02-19T05:13:09;100950.91;;;2.02;81.73
5138;BME280;53959;53.626;11.410;2023-02-19T05:15:35;100946.47;;;1.96;81.74
5138;BME280;53959;53.626;11.410;2023-02-19T05:18:00;100949.88;;;1.90;81.76
5138;BME280;53959;53.626;11.410;2023-02-19T05:20:26;100952.53;;;1.92;81.77
5138;BME280;53959;53.626;11.410;2023-02-19T05:22:51;100950.78;;;1.94;81.59
5138;BME280;53959;53.626;11.410;2023-02-19T05:25:16;100947.28;;;1.92;81.69
5138;BME280;53959;53.626;11.410;2023-02-19T05:27:42;100956.81;;;1.87;81.82
5138;BME280;53959;53.626;11.410;2023-02-19T05:30:08;100963.78;;;1.88;81.92
5138;BME280;53959;53.626;11.410;2023-02-19T05:32:34;100959.47;;;1.90;82.31
5138;BME280;53959;53.626;11.410;2023-02-19T05:34:59;100960.34;;;1.90;82.31
5138;BME280;53959;53.626;11.410;2023-02-19T05:37:25;100964.75;;;1.93;81.89
5138;BME280;53959;53.626;11.410;2023-02-19T05:39:50;100972.63;;;1.93;81.76
5138;BME280;53959;53.626;11.410;2023-02-19T05:42:15;100980.53;;;1.98;81.57
5138;BME280;53959;53.626;11.410;2023-02-19T05:44:41;100971.75;;;1.94;81.98
5138;BME280;53959;53.626;11.410;2023-02-19T05:47:07;100976.22;;;2.01;81.72
5138;BME280;53959;53.626;11.410;2023-02-19T05:49:33;100971.81;;;1.99;81.83
5138;BME280;53959;53.626;11.410;2023-02-19T05:51:58;100983.22;;;2.02;82.11
5138;BME280;53959;53.626;11.410;2023-02-19T05:54:23;100985.88;;;2.07;82.25
5138;BME280;53959;53.626;11.410;2023-02-19T05:56:49;100980.59;;;2.01;82.24
5138;BME280;53959;53.626;11.410;2023-02-19T05:59:17;100991.13;;;2.04;81.98
5138;BME280;53959;53.626;11.410;2023-02-19T06:01:43;100995.38;;;1.99;81.82
5138;BME280;53959;53.626;11.410;2023-02-19T06:04:10;101002.41;;;2.01;81.93
5138;BME280;53959;53.626;11.410;2023-02-19T06:06:35;101006.69;;;1.94;82.04
5138;BME280;53959;53.626;11.410;2023-02-19T06:09:02;101014.47;;;1.90;82.31
5138;BME280;53959;53.626;11.410;2023-02-19T06:11:28;101019.78;;;1.93;82.22
5138;BME280;53959;53.626;11.410;2023-02-19T06:13:53;101025.91;;;1.95;82.23
5138;BME280;53959;53.626;11.410;2023-02-19T06:16:19;101024.97;;;1.90;82.00
5138;BME280;53959;53.626;11.410;2023-02-19T06:18:46;101022.47;;;1.99;82.19
5138;BME280;53959;53.626;11.410;2023-02-19T06:21:12;101028.56;;;1.98;81.89
5138;BME280;53959;53.626;11.410;2023-02-19T06:23:38;101027.56;;;1.88;82.45
5138;BME280;53959;53.626;11.410;2023-02-19T06:26:12;101031.88;;;1.85;82.06
5138;BME280;53959;53.626;11.410;2023-02-19T06:28:39;101035.31;;;1.84;82.08
5138;BME280;53959;53.626;11.410;2023-02-19T06:31:06;101038.91;;;1.89;82.21
5138;BME280;53959;53.626;11.410;2023-02-19T06:33:32;101052.91;;;1.89;82.35
5138;BME280;53959;53.626;11.410;2023-02-19T06:35:59;101051.13;;;1.88;82.18
5138;BME280;53959;53.626;11.410;2023-02-19T06:38:25;101053.72;;;1.87;82.08
5138;BME280;53959;53.626;11.410;2023-02-19T06:40:51;101055.56;;;1.94;82.00
5138;BME280;53959;53.626;11.410;2023-02-19T06:43:16;101061.69;;;1.93;81.68
5138;BME280;53959;53.626;11.410;2023-02-19T06:45:41;101062.56;;;1.93;81.95
5138;BME280;53959;53.626;11.410;2023-02-19T06:48:07;101062.56;;;1.95;81.57
5138;BME280;53959;53.626;11.410;2023-02-19T06:50:32;101072.09;;;1.90;81.67
5138;BME280;53959;53.626;11.410;2023-02-19T06:52:58;101068.69;;;1.94;82.12
5138;BME280;53959;53.626;11.410;2023-02-19T06:55:23;101080.91;;;1.93;81.65
5138;BME280;53959;53.626;11.410;2023-02-19T06:57:48;101080.09;;;1.99;81.75
5138;BME280;53959;53.626;11.410;2023-02-19T07:00:14;101093.19;;;1.98;81.46
5138;BME280;53959;53.626;11.410;2023-02-19T07:02:39;101084.50;;;2.02;81.29
5138;BME280;53959;53.626;11.410;2023-02-19T07:05:05;101093.31;;;2.05;81.07
5138;BME280;53959;53.626;11.410;2023-02-19T07:07:30;101104.72;;;2.07;80.84
5138;BME280;53959;53.626;11.410;2023-02-19T07:09:55;101103.78;;;2.05;81.29
5138;BME280;53959;53.626;11.410;2023-02-19T07:12:21;101105.66;;;2.12;80.83
5138;BME280;53959;53.626;11.410;2023-02-19T07:14:46;101106.41;;;2.07;81.00
5138;BME280;53959;53.626;11.410;2023-02-19T07:17:12;101116.88;;;2.05;80.78
5138;BME280;53959;53.626;11.410;2023-02-19T07:19:37;101124.13;;;2.20;80.99
5138;BME280;53959;53.626;11.410;2023-02-19T07:22:02;101137.16;;;2.15;80.67
5138;BME280;53959;53.626;11.410;2023-02-19T07:24:28;101140.66;;;2.17;80.52
5138;BME280;53959;53.626;11.410;2023-02-19T07:26:53;101140.81;;;2.27;80.89
5138;BME280;53959;53.626;11.410;2023-02-19T07:29:19;101141.75;;;2.32;80.68
5138;BME280;53959;53.626;11.410;2023-02-19T07:31:44;101153.81;;;2.21;80.28
5138;BME280;53959;53.626;11.410;2023-02-19T07:34:09;101160.94;;;2.29;80.36
5138;BME280;53959;53.626;11.410;2023-02-19T07:36:36;101164.47;;;2.31;80.34
5138;BME280;53959;53.626;11.410;2023-02-19T07:39:02;101161.91;;;2.34;80.24
5138;BME280;53959;53.626;11.410;2023-02-19T07:41:27;101157.56;;;2.36;80.33
5138;BME280;53959;53.626;11.410;2023-02-19T07:43:55;101171.69;;;2.46;80.18
5138;BME280;53959;53.626;11.410;2023-02-19T07:46:21;101172.63;;;2.50;80.30
5138;BME280;53959;53.626;11.410;2023-02-19T07:48:47;101177.94;;;2.54;79.99
5138;BME280;53959;53.626;11.410;2023-02-19T07:51:15;101182.31;;;2.52;79.91
5138;BME280;53959;53.626;11.410;2023-02-19T07:53:46;101186.81;;;2.62;79.48
5138;BME280;53959;53.626;11.410;2023-02-19T07:56:12;101193.84;;;2.66;79.65
5138;BME280;53959;53.626;11.410;2023-02-19T07:58:38;101197.41;;;2.70;79.64
5138;BME280;53959;53.626;11.410;2023-02-19T08:01:12;101201.78;;;2.70;79.28
5138;BME280;53959;53.626;11.410;2023-02-19T08:03:38;101202.81;;;2.81;79.55
5138;BME280;53959;53.626;11.410;2023-02-19T08:06:04;101210.84;;;2.90;79.07
5138;BME280;53959;53.626;11.410;2023-02-19T08:08:30;101216.19;;;2.98;79.05
5138;BME280;53959;53.626;11.410;2023-02-19T08:10:59;101218.94;;;3.08;78.99
5138;BME280;53959;53.626;11.410;2023-02-19T08:13:43;101218.94;;;3.07;78.92
5138;BME280;53959;53.626;11.410;2023-02-19T08:16:11;101223.44;;;3.17;78.59
5138;BME280;53959;53.626;11.410;2023-02-19T08:18:37;101223.44;;;3.17;77.86
5138;BME280;53959;53.626;11.410;2023-02-19T08:21:03;101234.97;;;3.30;78.26
5138;BME280;53959;53.626;11.410;2023-02-19T08:23:28;101240.13;;;3.22;78.21
5138;BME280;53959;53.626;11.410;2023-02-19T08:25:56;101241.06;;;3.26;77.73
5138;BME280;53959;53.626;11.410;2023-02-19T08:28:22;101249.03;;;3.32;77.71
5138;BME280;53959;53.626;11.410;2023-02-19T08:30:48;101252.63;;;3.40;76.57
5138;BME280;53959;53.626;11.410;2023-02-19T08:33:16;101256.22;;;3.47;77.62
5138;BME280;53959;53.626;11.410;2023-02-19T08:35:41;101257.84;;;3.37;77.51
5138;BME280;53959;53.626;11.410;2023-02-19T08:38:08;101260.25;;;3.20;77.08
5138;BME280;53959;53.626;11.410;2023-02-19T08:40:35;101264.63;;;3.23;77.11
5138;BME280;53959;53.626;11.410;2023-02-19T08:43:21;101261.09;;;3.19;76.75
5138;BME280;53959;53.626;11.410;2023-02-19T08:45:46;101254.06;;;3.16;76.99
5138;BME280;53959;53.626;11.410;2023-02-19T08:48:11;101268.13;;;3.22;76.16
5138;BME280;53959;53.626;11.410;2023-02-19T08:50:37;101274.34;;;3.28;76.61
5138;BME280;53959;53.626;11.410;2023-02-19T08:53:04;101275.22;;;3.27;75.79
5138;BME280;53959;53.626;11.410;2023-02-19T08:55:30;101279.66;;;3.34;75.83
5138;BME280;53959;53.626;11.410;2023-02-19T08:57:55;101283.25;;;3.39;76.69
5138;BME280;53959;53.626;11.410;2023-02-19T09:00:21;101270.06;;;3.35;75.44
5138;BME280;53959;53.626;11.410;2023-02-19T09:02:47;101284.91;;;3.33;75.86
5138;BME280;53959;53.626;11.410;2023-02-19T09:05:13;101294.63;;;3.40;75.05
5138;BME280;53959;53.626;11.410;2023-02-19T09:07:39;101284.91;;;3.33;74.99
5138;BME280;53959;53.626;11.410;2023-02-19T09:10:05;101293.81;;;3.43;75.40
5138;BME280;53959;53.626;11.410;2023-02-19T09:12:30;101300.81;;;3.45;75.48
5138;BME280;53959;53.626;11.410;2023-02-19T09:14:58;101297.38;;;3.49;74.87
5138;BME280;53959;53.626;11.410;2023-02-19T09:17:23;101304.44;;;3.53;74.80
5138;BME280;53959;53.626;11.410;2023-02-19T09:19:49;101318.53;;;3.58;74.11
5138;BME280;53959;53.626;11.410;2023-02-19T09:22:14;101305.34;;;3.55;73.60
5138;BME280;53959;53.626;11.410;2023-02-19T09:24:41;101315.19;;;3.72;74.35
5138;BME280;53959;53.626;11.410;2023-02-19T09:27:07;101316.13;;;3.77;73.71
5138;BME280;53959;53.626;11.410;2023-02-19T09:29:32;101311.81;;;3.83;73.22
5138;BME280;53959;53.626;11.410;2023-02-19T09:31:59;101318.81;;;3.81;71.92
5138;BME280;53959;53.626;11.410;2023-02-19T09:34:26;101338.09;;;3.80;71.66
5138;BME280;53959;53.626;11.410;2023-02-19T09:36:52;101325.97;;;3.93;71.02
5138;BME280;53959;53.626;11.410;2023-02-19T09:39:18;101336.59;;;4.04;71.83
5138;BME280;53959;53.626;11.410;2023-02-19T09:41:56;101346.25;;;4.03;71.22
5138;BME280;53959;53.626;11.410;2023-02-19T09:44:29;101376.09;;;4.08;70.61
5138;BME280;53959;53.626;11.410;2023-02-19T09:46:57;101357.69;;;4.08;69.75
5138;BME280;53959;53.626;11.410;2023-02-19T09:49:35;101369.22;;;4.20;70.52
5138;BME280;53959;53.626;11.410;2023-02-19T09:52:07;101376.16;;;4.14;69.68
5138;BME280;53959;53.626;11.410;2023-02-19T09:54:38;101365.75;;;4.24;69.53
5138;BME280;53959;53.626;11.410;2023-02-19T09:57:15;101373.59;;;4.19;69.31
5138;BME280;53959;53.626;11.410;2023-02-19T09:59:52;101385.94;;;4.26;68.70
5138;BME280;53959;53.626;11.410;2023-02-19T10:02:23;101383.41;;;4.34;68.92
5138;BME280;53959;53.626;11.410;2023-02-19T10:04:49;101382.47;;;4.29;67.92
5138;BME280;53959;53.626;11.410;2023-02-19T10:07:24;101383.53;;;4.46;69.69
5138;BME280;53959;53.626;11.410;2023-02-19T10:10:01;101392.34;;;4.48;68.59
5138;BME280;53959;53.626;11.410;2023-02-19T10:12:29;101394.16;;;4.57;68.12
5138;BME280;53959;53.626;11.410;2023-02-19T10:15:00;101410.88;;;4.62;67.96
5138;BME280;53959;53.626;11.410;2023-02-19T10:17:30;101407.44;;;4.68;66.78
5138;BME280;53959;53.626;11.410;2023-02-19T10:19:59;101420.59;;;4.68;66.34
5138;BME280;53959;53.626;11.410;2023-02-19T10:22:25;101414.34;;;4.56;65.83
5138;BME280;53959;53.626;11.410;2023-02-19T10:24:53;101409.97;;;4.55;65.18
5138;BME280;53959;53.626;11.410;2023-02-19T10:27:19;101415.22;;;4.55;65.29
5138;BME280;53959;53.626;11.410;2023-02-19T10:29:46;101418.72;;;4.56;65.66
5138;BME280;53959;53.626;11.410;2023-02-19T10:32:19;101427.72;;;4.78;65.59
5138;BME280;53959;53.626;11.410;2023-02-19T10:35:07;101416.38;;;4.83;64.54
5138;BME280;53959;53.626;11.410;2023-02-19T10:37:34;101420.66;;;4.74;63.76
5138;BME280;53959;53.626;11.410;2023-02-19T10:40:01;101426.03;;;4.83;63.96
5138;BME280;53959;53.626;11.410;2023-02-19T10:42:27;101440.19;;;4.97;64.32
5138;BME280;53959;53.626;11.410;2023-02-19T10:44:55;101431.38;;;4.95;62.64
5138;BME280;53959;53.626;11.410;2023-02-19T10:47:25;101441.00;;;4.92;63.33
5138;BME280;53959;53.626;11.410;2023-02-19T10:49:52;101457.72;;;4.94;63.50
5138;BME280;53959;53.626;11.410;2023-02-19T10:52:23;101454.16;;;4.92;61.69
5138;BME280;53959;53.626;11.410;2023-02-19T10:55:19;101464.63;;;4.84;63.04
5138;BME280;53959;53.626;11.410;2023-02-19T10:57:48;101477.09;;;5.02;63.01
5138;BME280;53959;53.626;11.410;2023-02-19T11:02:40;101492.09;;;5.10;61.62
5138;BME280;53959;53.626;11.410;2023-02-19T11:07:47;101493.03;;;5.16;61.87
5138;BME280;53959;53.626;11.410;2023-02-19T11:10:37;101492.13;;;5.14;61.75
5138;BME280;53959;53.626;11.410;2023-02-19T11:13:05;101499.13;;;5.10;60.87
5138;BME280;53959;53.626;11.410;2023-02-19T11:15:35;101499.28;;;5.27;61.51
5138;BME280;53959;53.626;11.410;2023-02-19T11:18:06;101506.34;;;5.32;61.83
5138;BME280;53959;53.626;11.410;2023-02-19T11:20:32;101503.09;;;5.63;62.33
5138;BME280;53959;53.626;11.410;2023-02-19T11:23:12;101502.28;;;5.70;60.21
5138;BME280;53959;53.626;11.410;2023-02-19T11:25:45;101521.53;;;5.58;59.86
5138;BME280;53959;53.626;11.410;2023-02-19T11:28:38;101512.66;;;5.50;58.83
5138;BME280;53959;53.626;11.410;2023-02-19T11:34:02;101520.50;;;5.42;59.57
5138;BME280;53959;53.626;11.410;2023-02-19T11:36:30;101515.28;;;5.47;58.85
5138;BME280;53959;53.626;11.410;2023-02-19T11:38:59;101507.44;;;5.56;58.48
5138;BME280;53959;53.626;11.410;2023-02-19T11:49:39;101510.13;;;5.64;57.59
5138;BME280;53959;53.626;11.410;2023-02-19T11:52:17;101507.38;;;5.48;57.82
5138;BME280;53959;53.626;11.410;2023-02-19T11:54:54;101513.47;;;5.43;56.52
5138;BME280;53959;53.626;11.410;2023-02-19T11:57:37;101507.34;;;5.42;57.36
5138;BME280;53959;53.626;11.410;2023-02-19T12:00:26;101510.84;;;5.44;57.07
5138;BME280;53959;53.626;11.410;2023-02-19T12:11:15;101532.91;;;5.55;55.74
5138;BME280;53959;53.626;11.410;2023-02-19T12:16:48;101546.03;;;5.52;55.73
5138;BME280;53959;53.626;11.410;2023-02-19T12:19:57;101543.47;;;5.58;56.13
5138;BME280;53959;53.626;11.410;2023-02-19T12:22:31;101541.94;;;5.83;56.20
5138;BME280;53959;53.626;11.410;2023-02-19T12:38:30;101552.84;;;6.36;53.43
5138;BME280;53959;53.626;11.410;2023-02-19T12:43:57;101566.94;;;6.36;54.81
5138;BME280;53959;53.626;11.410;2023-02-19T12:46:30;101566.97;;;6.41;52.45
5138;BME280;53959;53.626;11.410;2023-02-19T12:49:02;101560.75;;;6.29;53.18
5138;BME280;53959;53.626;11.410;2023-02-19T12:51:39;101564.31;;;6.38;53.01
5138;BME280;53959;53.626;11.410;2023-02-19T12:54:13;101567.88;;;6.47;54.11
5138;BME280;53959;53.626;11.410;2023-02-19T12:56:47;101576.66;;;6.45;53.52
5138;BME280;53959;53.626;11.410;2023-02-19T12:59:25;101572.44;;;6.77;52.89
5138;BME280;53959;53.626;11.410;2023-02-19T13:04:42;101585.53;;;6.59;49.63
5138;BME280;53959;53.626;11.410;2023-02-19T13:07:29;101569.63;;;6.47;49.92
5138;BME280;53959;53.626;11.410;2023-02-19T13:10:01;101582.06;;;6.68;50.63
5138;BME280;53959;53.626;11.410;2023-02-19T13:12:33;101582.78;;;6.42;50.44
5138;BME280;53959;53.626;11.410;2023-02-19T13:15:03;101579.47;;;6.78;50.37
5138;BME280;53959;53.626;11.410;2023-02-19T13:17:43;101575.03;;;6.71;49.51
5138;BME280;53959;53.626;11.410;2023-02-19T13:36:28;101554.91;;;8.63;43.90
5138;BME280;53959;53.626;11.410;2023-02-19T13:38:55;101570.59;;;10.28;42.24
5138;BME280;53959;53.626;11.410;2023-02-19T13:41:29;101564.75;;;10.75;41.45
5138;BME280;53959;53.626;11.410;2023-02-19T13:43:58;101552.44;;;11.36;40.22
5138;BME280;53959;53.626;11.410;2023-02-19T13:46:32;101554.97;;;11.43;40.06
5138;BME280;53959;53.626;11.410;2023-02-19T13:49:24;101545.28;;;11.38;39.36
5138;BME280;53959;53.626;11.410;2023-02-19T13:52:01;101552.66;;;10.48;39.97
5138;BME280;53959;53.626;11.410;2023-02-19T13:54:30;101560.81;;;11.67;38.86
5138;BME280;53959;53.626;11.410;2023-02-19T13:59:52;101540.75;;;11.43;38.93
5138;BME280;53959;53.626;11.410;2023-02-19T14:02:26;101547.63;;;11.59;39.69
5138;BME280;53959;53.626;11.410;2023-02-19T14:05:08;101539.50;;;11.08;39.07
5138;BME280;53959;53.626;11.410;2023-02-19T14:07:52;101537.66;;;11.15;39.84
5138;BME280;53959;53.626;11.410;2023-02-19T14:10:50;101538.94;;;10.05;41.15
5138;BME280;53959;53.626;11.410;2023-02-19T14:18:57;101551.44;;;8.41;44.99
5138;BME280;53959;53.626;11.410;2023-02-19T14:21:24;101561.19;;;7.99;46.02
5138;BME280;53959;53.626;11.410;2023-02-19T14:23:54;101567.34;;;8.00;45.45
5138;BME280;53959;53.626;11.410;2023-02-19T14:26:23;101573.53;;;7.88;46.80
5138;BME280;53959;53.626;11.410;2023-02-19T14:28:50;101577.06;;;7.83;46.75
5138;BME280;53959;53.626;11.410;2023-02-19T14:31:21;101575.28;;;7.74;47.61
5138;BME280;53959;53.626;11.410;2023-02-19T14:33:51;101575.28;;;7.52;47.14
5138;BME280;53959;53.626;11.410;2023-02-19T14:36:43;101574.38;;;7.43;47.28
5138;BME280;53959;53.626;11.410;2023-02-19T14:39:15;101581.38;;;7.24;48.07